Portada
METAR-TAF:

METAR-TAF

Aeroports :

Aeroport de Jiddah Rei Abdulaziz

Jiddah, Aràbia Saudita

latitud: 21-42N, longitud: 039-11E, altitud: 15 m

Observació

L'informe es va fer fa 58 minuts, a les 12:00 UTC
Vent 4 kt del Nord/Nord-Oest
Temperatura 28°C
Humitat 48%
Pressió 1012 hPa
Visibilitat 10 km o més
Escasses núvols a una alçada de 4000 ft
Núvols disperses a una alçada de 10000 ft

METAR: OEJN 091200Z 33004KT 9999 FEW040 SCT100 28/16 Q1012 NOSIG

Hora: 15:58 (12:58 UTC)

Pronòstic

L'informe es va fer fa 1 hora i 58 minuts, a les 11:00 UTC
Pronòstic vàlid del 09 a les 12 UTC al 10 a les 18 UTC
Vent 14 kt del Nord/Nord-Oest
Visibilitat 10 km o més
Núvols disperses a una alçada de 4000 ft
Evolucionant progressivament
l' 09 a les 18 UTC al 09 a les 20 UTC
Vent 5 kt del Nord/Nord-Est

TAF: OEJN 091100Z 0912/1018 33014KT 9999 SCT040 BECMG 0918/0920 03005KT

Observacions i pronòstics meteorològics de més de 4000 aeroports (METAR i TAF).

Les estacions disponibles són els punts grocs i vermells al mapa.

Posi el ratolí al punt desitjat per veure el nom de l'estació.

Feu clic per veure les observacions i els pronòstics meteorològics.

Per canviar el mapa: feu clic els botons verds amb una creu de color negre per apropar; al botó verd amb un guió per allunyar la imatge; o en les fletxes verdes per a mapes adjacents.


METAR-TAF: